Time;durP1;ratioP1;P1;durP2;ratioP2;P2;SDS_P1;SDS_P2;PMS_P1;PMS_P2;Temp;Humidity;BMP_temperature;BMP_pressure;BME280_temperature;BME280_humidity;BME280_pressure;Samples;Min_cycle;Max_cycle;Signal;HPM_P1;HPM_P2
2021/11/29 00:00:28;;;;;;;3.50;2.80;;;;;7.40;100156.00;;;;5090615;28;20198;-81
2021/11/29 00:02:58;;;;;;;5.60;3.05;;;;;7.40;100153.00;;;;5102426;28;20621;-81
2021/11/29 00:05:28;;;;;;;5.68;3.28;;;;;7.40;100163.00;;;;5090559;28;20194;-81
2021/11/29 00:07:57;;;;;;;4.95;3.30;;;;;7.40;100161.00;;;;5087932;28;20213;-81
2021/11/29 00:10:24;;;;;;;4.05;2.42;;;;;7.40;100161.00;;;;5091138;28;20251;-78
2021/11/29 00:12:51;;;;;;;4.32;2.67;;;;;7.40;100156.00;;;;5106599;28;20694;-79
2021/11/29 00:15:20;;;;;;;5.22;2.90;;;;;7.40;100161.00;;;;5098352;28;20563;-79
2021/11/29 00:17:47;;;;;;;3.08;2.25;;;;;7.40;100167.00;;;;5097352;28;20212;-79
2021/11/29 00:20:16;;;;;;;3.03;2.53;;;;;7.40;100167.00;;;;5104855;28;20221;-78
2021/11/29 00:22:45;;;;;;;4.45;2.72;;;;;7.40;100174.00;;;;5094098;28;20205;-79
2021/11/29 00:25:13;;;;;;;3.75;2.38;;;;;7.40;100169.00;;;;5098823;28;20553;-78
2021/11/29 00:27:41;;;;;;;5.05;2.10;;;;;7.40;100176.00;;;;5087071;28;20218;-79
2021/11/29 00:30:11;;;;;;;3.33;2.15;;;;;7.40;100172.00;;;;5088435;28;20201;-79
2021/11/29 00:32:39;;;;;;;3.60;2.10;;;;;7.40;100181.00;;;;5087165;28;20214;-79
2021/11/29 00:35:08;;;;;;;2.17;1.73;;;;;7.40;100179.00;;;;5088720;28;20214;-79
2021/11/29 00:37:36;;;;;;;3.03;2.05;;;;;7.40;100181.00;;;;5092760;28;20194;-79
2021/11/29 00:40:07;;;;;;;3.30;1.77;;;;;7.30;100185.00;;;;5087995;28;20213;-79
2021/11/29 00:42:34;;;;;;;3.83;1.55;;;;;7.30;100184.00;;;;5104222;28;20557;-78
2021/11/29 00:45:01;;;;;;;3.50;2.22;;;;;7.30;100183.00;;;;5101241;28;20191;-79
2021/11/29 00:47:28;;;;;;;4.57;1.90;;;;;7.30;100193.00;;;;5087583;28;20195;-79
2021/11/29 00:49:56;;;;;;;3.70;2.00;;;;;7.30;100199.00;;;;5088250;28;20194;-79
2021/11/29 00:52:24;;;;;;;2.50;1.63;;;;;7.30;100203.00;;;;5087624;28;20226;-79
2021/11/29 00:54:51;;;;;;;2.30;1.65;;;;;7.30;100198.00;;;;5096839;28;20734;-79
2021/11/29 00:57:19;;;;;;;3.97;1.60;;;;;7.30;100206.00;;;;5086278;28;20213;-79
2021/11/29 00:59:48;;;;;;;2.95;1.50;;;;;7.40;100199.00;;;;5085926;28;20186;-79
2021/11/29 01:02:17;;;;;;;3.05;1.67;;;;;7.40;100206.00;;;;5099200;28;20238;-79
2021/11/29 01:04:45;;;;;;;2.30;1.70;;;;;7.40;100210.00;;;;5105769;28;20193;-79
2021/11/29 01:07:12;;;;;;;2.00;1.45;;;;;7.40;100206.00;;;;5087193;28;20198;-79
2021/11/29 01:09:39;;;;;;;2.10;1.20;;;;;7.40;100203.00;;;;5089400;28;20218;-79
2021/11/29 01:12:08;;;;;;;1.38;0.98;;;;;7.50;100211.00;;;;5103492;28;20600;-79
2021/11/29 01:14:37;;;;;;;1.10;0.77;;;;;7.40;100204.00;;;;5102145;28;20194;-79
2021/11/29 01:17:05;;;;;;;1.40;0.93;;;;;7.50;100211.00;;;;5087566;28;20202;-79
2021/11/29 01:19:33;;;;;;;1.70;0.80;;;;;7.50;100219.00;;;;5087554;28;20194;-79
2021/11/29 01:22:00;;;;;;;0.50;0.40;;;;;7.50;100224.00;;;;5093770;28;20193;-79
2021/11/29 01:24:27;;;;;;;0.95;0.40;;;;;7.50;100216.00;;;;5110959;28;20194;-79
2021/11/29 01:26:54;;;;;;;1.67;0.63;;;;;7.60;100215.00;;;;5106623;28;20198;-79
2021/11/29 01:29:22;;;;;;;1.38;0.47;;;;;7.60;100223.00;;;;5100768;28;20229;-79
2021/11/29 01:31:51;;;;;;;1.20;0.57;;;;;7.60;100220.00;;;;5090754;28;20197;-79
2021/11/29 01:34:18;;;;;;;0.60;0.32;;;;;7.60;100215.00;;;;5090182;28;20898;-79
2021/11/29 01:36:46;;;;;;;1.17;0.50;;;;;7.60;100209.00;;;;5109993;28;20190;-79
2021/11/29 01:39:14;;;;;;;0.52;0.20;;;;;7.60;100216.00;;;;5108791;28;20197;-79
2021/11/29 01:41:43;;;;;;;1.92;0.80;;;;;7.60;100214.00;;;;5094382;27;20203;-79
2021/11/29 01:44:11;;;;;;;1.48;0.57;;;;;7.60;100215.00;;;;5109146;28;20220;-79
2021/11/29 01:46:39;;;;;;;1.48;0.30;;;;;7.60;100218.00;;;;5089795;28;20210;-79
2021/11/29 01:49:09;;;;;;;2.75;0.50;;;;;7.60;100222.00;;;;5092382;28;20595;-79
2021/11/29 01:51:36;;;;;;;0.65;0.45;;;;;7.60;100223.00;;;;5094778;28;20702;-79
2021/11/29 01:54:04;;;;;;;0.60;0.45;;;;;7.60;100225.00;;;;5110546;28;20201;-80
2021/11/29 01:56:31;;;;;;;0.50;0.32;;;;;7.60;100222.00;;;;5103062;28;20194;-80
2021/11/29 01:58:58;;;;;;;0.25;0.10;;;;;7.60;100214.00;;;;5090711;28;20198;-79
2021/11/29 02:01:27;;;;;;;0.30;0.20;;;;;7.50;100223.00;;;;5105953;28;20202;-79
2021/11/29 02:03:57;;;;;;;1.23;0.47;;;;;7.50;100217.00;;;;5090845;28;20231;-80
2021/11/29 02:06:27;;;;;;;0.80;0.28;;;;;7.50;100222.00;;;;5102413;28;20285;-79
2021/11/29 02:08:54;;;;;;;1.15;0.10;;;;;7.50;100227.00;;;;5089859;28;20237;-79
2021/11/29 02:11:22;;;;;;;0.10;0.00;;;;;7.50;100211.00;;;;5105074;28;20197;-79
2021/11/29 02:13:50;;;;;;;1.20;0.20;;;;;7.50;100227.00;;;;5090127;28;20206;-79
2021/11/29 02:16:18;;;;;;;0.40;0.10;;;;;7.50;100220.00;;;;5104789;28;20710;-79
2021/11/29 02:18:46;;;;;;;2.42;0.25;;;;;7.50;100230.00;;;;5093813;28;20205;-78
2021/11/29 02:21:18;;;;;;;0.10;0.00;;;;;7.50;100225.00;;;;5089060;28;20197;-79
2021/11/29 02:23:48;;;;;;;0.10;0.00;;;;;7.50;100218.00;;;;5090158;28;20585;-79
2021/11/29 02:26:17;;;;;;;0.32;0.10;;;;;7.50;100229.00;;;;5099942;28;20193;-79
2021/11/29 02:28:48;;;;;;;0.30;0.05;;;;;7.50;100231.00;;;;5102367;28;21034;-80
2021/11/29 02:31:21;;;;;;;1.55;0.10;;;;;7.40;100235.00;;;;5089068;28;20818;-79
2021/11/29 02:33:48;;;;;;;0.30;0.10;;;;;7.50;100231.00;;;;5089234;28;20223;-79
2021/11/29 02:36:17;;;;;;;1.33;0.10;;;;;7.40;100230.00;;;;5094628;28;20213;-79
2021/11/29 02:38:44;;;;;;;0.20;0.10;;;;;7.50;100239.00;;;;5109310;28;20198;-79
2021/11/29 02:41:12;;;;;;;0.10;0.00;;;;;7.50;100236.00;;;;5108818;28;20194;-79
2021/11/29 02:43:39;;;;;;;0.20;0.10;;;;;7.50;100234.00;;;;5096865;28;20205;-79
2021/11/29 02:46:06;;;;;;;0.15;0.00;;;;;7.50;100237.00;;;;5089637;28;20205;-80
2021/11/29 02:48:42;;;;;;;1.35;0.65;;;;;7.50;100232.00;;;;5106690;28;20224;-79
2021/11/29 02:51:18;;;;;;;0.10;0.10;;;;;7.50;100232.00;;;;5089348;28;20195;-80
2021/11/29 02:53:45;;;;;;;0.20;0.10;;;;;7.50;100238.00;;;;5090118;28;20213;-80
2021/11/29 02:56:13;;;;;;;0.15;0.03;;;;;7.50;100230.00;;;;5090889;28;20213;-79
2021/11/29 02:58:41;;;;;;;0.13;0.00;;;;;7.50;100228.00;;;;5101165;28;20194;-80
2021/11/29 03:01:08;;;;;;;0.30;0.13;;;;;7.50;100224.00;;;;5096327;28;20198;-80
2021/11/29 03:03:44;;;;;;;1.17;0.30;;;;;7.60;100225.00;;;;5109150;28;20196;-80
2021/11/29 03:06:11;;;;;;;0.20;0.10;;;;;7.60;100227.00;;;;5089515;28;20202;-79
2021/11/29 03:08:40;;;;;;;0.80;0.30;;;;;7.50;100224.00;;;;5104455;28;20223;-80
2021/11/29 03:11:07;;;;;;;0.50;0.22;;;;;7.50;100222.00;;;;5103011;28;20204;-79
2021/11/29 03:13:35;;;;;;;1.38;0.40;;;;;7.50;100222.00;;;;5107101;28;20205;-79
2021/11/29 03:16:02;;;;;;;0.55;0.20;;;;;7.50;100231.00;;;;5089009;28;20198;-79
2021/11/29 03:18:30;;;;;;;0.35;0.28;;;;;7.50;100232.00;;;;5087899;28;20198;-79
2021/11/29 03:20:58;;;;;;;0.40;0.13;;;;;7.50;100230.00;;;;5088326;28;20210;-79
2021/11/29 03:23:25;;;;;;;0.43;0.30;;;;;7.50;100223.00;;;;5101487;28;20738;-79
2021/11/29 03:25:54;;;;;;;0.30;0.22;;;;;7.50;100233.00;;;;5108775;28;20675;-79
2021/11/29 03:28:21;;;;;;;1.27;0.30;;;;;7.50;100247.00;;;;5089433;28;20194;-79
2021/11/29 03:30:48;;;;;;;0.47;0.38;;;;;7.50;100242.00;;;;5093966;28;20204;-79
2021/11/29 03:33:16;;;;;;;1.48;0.70;;;;;7.50;100254.00;;;;5093049;28;20720;-79
2021/11/29 03:35:43;;;;;;;0.50;0.30;;;;;7.50;100250.00;;;;5089258;28;20556;-79
2021/11/29 03:38:11;;;;;;;0.52;0.30;;;;;7.50;100254.00;;;;5088539;28;20198;-79
2021/11/29 03:40:39;;;;;;;1.42;0.30;;;;;7.50;100255.00;;;;5101239;28;20194;-79
2021/11/29 03:43:07;;;;;;;1.00;0.30;;;;;7.50;100257.00;;;;5088445;28;20202;-79
2021/11/29 03:45:35;;;;;;;0.30;0.10;;;;;7.50;100245.00;;;;5088377;28;20679;-79
2021/11/29 03:48:02;;;;;;;1.00;0.40;;;;;7.50;100260.00;;;;5088437;28;20198;-79
2021/11/29 03:50:29;;;;;;;0.30;0.10;;;;;7.50;100266.00;;;;5088048;28;20236;-79
2021/11/29 03:52:57;;;;;;;1.02;0.30;;;;;7.50;100259.00;;;;5089025;28;20715;-79
2021/11/29 03:55:24;;;;;;;0.95;0.32;;;;;7.50;100265.00;;;;5088894;28;20209;-79
2021/11/29 03:57:52;;;;;;;0.50;0.10;;;;;7.60;100269.00;;;;5089148;28;20198;-79
2021/11/29 04:00:21;;;;;;;0.35;0.20;;;;;7.50;100270.00;;;;5088809;28;20606;-79
2021/11/29 04:02:48;;;;;;;1.77;0.32;;;;;7.50;100259.00;;;;5092646;28;20197;-79
2021/11/29 04:05:16;;;;;;;0.35;0.20;;;;;7.50;100272.00;;;;5109263;28;20205;-79
2021/11/29 04:07:43;;;;;;;1.67;0.75;;;;;7.60;100266.00;;;;5088613;28;20206;-80
2021/11/29 04:10:12;;;;;;;3.42;0.40;;;;;7.50;100268.00;;;;5096749;28;20225;-79
2021/11/29 04:12:39;;;;;;;1.08;0.10;;;;;7.60;100280.00;;;;5089382;28;20812;-79
2021/11/29 04:15:08;;;;;;;0.50;0.30;;;;;7.60;100280.00;;;;5090917;28;20197;-79
2021/11/29 04:17:39;;;;;;;0.65;0.30;;;;;7.60;100286.00;;;;5091671;28;20206;-79
2021/11/29 04:20:09;;;;;;;0.17;0.10;;;;;7.60;100283.00;;;;5096816;28;20195;-79
2021/11/29 04:22:36;;;;;;;3.72;0.43;;;;;7.70;100279.00;;;;5088273;28;20194;-79
2021/11/29 04:25:04;;;;;;;0.20;0.10;;;;;7.70;100275.00;;;;5088320;28;20198;-79
2021/11/29 04:27:32;;;;;;;0.17;0.08;;;;;7.70;100277.00;;;;5091526;28;20198;-79
2021/11/29 04:30:04;;;;;;;1.38;0.20;;;;;7.70;100278.00;;;;5097691;28;20666;-79
2021/11/29 04:32:31;;;;;;;0.20;0.10;;;;;7.70;100288.00;;;;5093259;28;20952;-79
2021/11/29 04:35:00;;;;;;;1.25;0.30;;;;;7.60;100276.00;;;;5100503;28;20271;-79
2021/11/29 04:37:27;;;;;;;0.30;0.20;;;;;7.70;100288.00;;;;5088153;28;20202;-79
2021/11/29 04:39:54;;;;;;;0.32;0.13;;;;;7.60;100282.00;;;;5100160;28;20201;-79
2021/11/29 04:42:22;;;;;;;1.33;0.20;;;;;7.70;100288.00;;;;5106894;28;20835;-79
2021/11/29 04:44:49;;;;;;;0.40;0.20;;;;;7.70;100301.00;;;;5088680;28;20194;-79
2021/11/29 04:47:16;;;;;;;0.28;0.10;;;;;7.70;100292.00;;;;5091261;28;20194;-79
2021/11/29 04:49:43;;;;;;;0.22;0.13;;;;;7.70;100290.00;;;;5093251;28;20209;-78
2021/11/29 04:52:12;;;;;;;0.28;0.20;;;;;7.60;100294.00;;;;5098128;28;20626;-78
2021/11/29 04:54:39;;;;;;;0.40;0.40;;;;;7.60;100292.00;;;;5099819;28;20195;-79
2021/11/29 04:57:07;;;;;;;1.80;0.50;;;;;7.60;100295.00;;;;5088744;28;20209;-79
2021/11/29 04:59:34;;;;;;;0.80;0.20;;;;;7.60;100293.00;;;;5092691;28;20191;-79
2021/11/29 05:02:02;;;;;;;0.95;0.30;;;;;7.60;100296.00;;;;5091823;28;20198;-79
2021/11/29 05:04:31;;;;;;;0.30;0.20;;;;;7.60;100295.00;;;;5091444;28;20541;-79
2021/11/29 05:06:58;;;;;;;1.10;0.30;;;;;7.60;100295.00;;;;5090649;28;20202;-78
2021/11/29 05:09:27;;;;;;;1.33;0.30;;;;;7.60;100300.00;;;;5089756;28;20226;-79
2021/11/29 05:11:54;;;;;;;0.60;0.30;;;;;7.60;100302.00;;;;5092604;28;20206;-79
2021/11/29 05:14:22;;;;;;;0.43;0.35;;;;;7.60;100298.00;;;;5107967;28;20197;-79
2021/11/29 05:16:49;;;;;;;1.33;0.40;;;;;7.60;100302.00;;;;5102370;28;20198;-79
2021/11/29 05:19:16;;;;;;;0.52;0.30;;;;;7.60;100306.00;;;;5104619;28;20607;-79
2021/11/29 05:21:43;;;;;;;0.28;0.20;;;;;7.50;100297.00;;;;5091880;28;20664;-79
2021/11/29 05:24:12;;;;;;;0.50;0.30;;;;;7.50;100299.00;;;;5091329;28;20194;-79
2021/11/29 05:26:41;;;;;;;0.85;0.20;;;;;7.50;100306.00;;;;5100980;28;20201;-78
2021/11/29 05:29:08;;;;;;;0.43;0.28;;;;;7.50;100296.00;;;;5109548;28;20202;-78
2021/11/29 05:31:36;;;;;;;0.63;0.35;;;;;7.50;100304.00;;;;5091748;28;20198;-79
2021/11/29 05:34:03;;;;;;;1.02;0.32;;;;;7.50;100302.00;;;;5091840;28;20210;-79
2021/11/29 05:36:30;;;;;;;0.40;0.20;;;;;7.50;100308.00;;;;5091232;28;20206;-79
2021/11/29 05:38:57;;;;;;;0.80;0.50;;;;;7.50;100292.00;;;;5101721;28;20212;-79
2021/11/29 05:41:25;;;;;;;1.13;0.60;;;;;7.50;100302.00;;;;5106623;28;20190;-79
2021/11/29 05:43:53;;;;;;;0.95;0.50;;;;;7.50;100298.00;;;;5096928;28;20199;-78
2021/11/29 05:46:22;;;;;;;2.10;0.43;;;;;7.40;100299.00;;;;5091347;28;20225;-79
2021/11/29 05:48:50;;;;;;;2.05;0.40;;;;;7.50;100302.00;;;;5091555;28;20194;-79
2021/11/29 05:51:18;;;;;;;1.88;0.60;;;;;7.40;100304.00;;;;5103724;28;20218;-79
2021/11/29 05:53:47;;;;;;;0.80;0.40;;;;;7.50;100315.00;;;;5089432;28;20199;-78
2021/11/29 05:56:14;;;;;;;0.75;0.40;;;;;7.40;100320.00;;;;5089019;28;20229;-79
2021/11/29 05:58:42;;;;;;;3.17;0.40;;;;;7.40;100325.00;;;;5089737;28;20208;-79
2021/11/29 06:01:10;;;;;;;0.95;0.40;;;;;7.40;100330.00;;;;5094444;28;20198;-80
2021/11/29 06:03:38;;;;;;;0.88;0.40;;;;;7.40;100334.00;;;;5096965;28;20204;-79
2021/11/29 06:06:05;;;;;;;1.02;0.40;;;;;7.40;100335.00;;;;5108526;28;20197;-79
2021/11/29 06:08:32;;;;;;;1.45;0.32;;;;;7.40;100341.00;;;;5089839;28;21966;-79
2021/11/29 06:11:00;;;;;;;0.30;0.22;;;;;7.40;100339.00;;;;5091005;28;20229;-79
2021/11/29 06:13:27;;;;;;;2.08;0.70;;;;;7.40;100346.00;;;;5090608;28;20199;-79
2021/11/29 06:15:54;;;;;;;0.75;0.30;;;;;7.40;100351.00;;;;5098505;28;20205;-79
2021/11/29 06:18:23;;;;;;;2.83;0.30;;;;;7.40;100351.00;;;;5091828;28;20208;-79
2021/11/29 06:20:50;;;;;;;1.80;0.40;;;;;7.40;100367.00;;;;5099534;28;20220;-77
2021/11/29 06:23:17;;;;;;;0.30;0.10;;;;;7.40;100367.00;;;;5095002;28;20198;-78
2021/11/29 06:25:45;;;;;;;0.60;0.40;;;;;7.50;100379.00;;;;5092609;28;21031;-79
2021/11/29 06:28:12;;;;;;;0.70;0.30;;;;;7.50;100387.00;;;;5102238;28;20201;-78
2021/11/29 06:30:39;;;;;;;1.35;0.45;;;;;7.50;100386.00;;;;5102891;28;20229;-78
2021/11/29 06:33:07;;;;;;;0.77;0.52;;;;;7.60;100387.00;;;;5096497;27;20214;-78
2021/11/29 06:35:35;;;;;;;1.60;0.60;;;;;7.60;100382.00;;;;5098385;27;20194;-79
2021/11/29 06:38:04;;;;;;;2.88;0.65;;;;;7.60;100374.00;;;;5091543;27;20206;-78
2021/11/29 06:40:33;;;;;;;1.45;0.32;;;;;7.60;100377.00;;;;5091157;28;20201;-80
2021/11/29 06:43:01;;;;;;;1.35;0.50;;;;;7.60;100385.00;;;;5094732;28;20202;-79
2021/11/29 06:45:28;;;;;;;3.53;0.52;;;;;7.70;100380.00;;;;5089762;28;20194;-80
2021/11/29 06:47:55;;;;;;;0.75;0.28;;;;;7.70;100361.00;;;;5101456;28;20194;-79
2021/11/29 06:50:23;;;;;;;1.75;0.50;;;;;7.70;100377.00;;;;5089713;28;20225;-80
2021/11/29 06:52:52;;;;;;;0.98;0.50;;;;;7.70;100373.00;;;;5089387;28;20309;-77
2021/11/29 06:55:20;;;;;;;2.78;0.43;;;;;7.80;100377.00;;;;5101866;28;20190;-77
2021/11/29 06:57:48;;;;;;;0.85;0.47;;;;;7.80;100383.00;;;;5093416;28;20201;-76
2021/11/29 07:00:20;;;;;;;1.25;0.40;;;;;7.80;100376.00;;;;5089433;28;20210;-77
2021/11/29 07:02:47;;;;;;;0.95;0.55;;;;;7.90;100385.00;;;;5089499;28;20577;-76
2021/11/29 07:05:15;;;;;;;2.70;0.63;;;;;8.00;100388.00;;;;5087516;28;20213;-76
2021/11/29 07:07:44;;;;;;;1.00;0.40;;;;;8.00;100392.00;;;;5092774;28;20205;-76
2021/11/29 07:10:13;;;;;;;1.55;0.40;;;;;8.00;100400.00;;;;5090363;28;20222;-76
2021/11/29 07:12:41;;;;;;;0.85;0.35;;;;;8.10;100393.00;;;;5098427;28;20262;-77
2021/11/29 07:15:10;;;;;;;1.08;0.55;;;;;8.10;100398.00;;;;5096062;28;20198;-77
2021/11/29 07:17:37;;;;;;;1.52;0.60;;;;;8.20;100402.00;;;;5088795;28;20206;-77
2021/11/29 07:20:05;;;;;;;1.08;0.50;;;;;8.20;100399.00;;;;5088196;28;20209;-76
2021/11/29 07:22:32;;;;;;;3.83;0.60;;;;;8.20;100412.00;;;;5104558;28;20201;-76
2021/11/29 07:25:02;;;;;;;0.57;0.20;;;;;8.20;100403.00;;;;5089655;28;20201;-76
2021/11/29 07:27:32;;;;;;;1.10;0.40;;;;;8.30;100413.00;;;;5097350;28;20682;-77
2021/11/29 07:29:59;;;;;;;2.15;0.40;;;;;8.30;100415.00;;;;5098845;28;20821;-76
2021/11/29 07:32:29;;;;;;;1.13;0.47;;;;;8.40;100423.00;;;;5088606;28;20209;-76
2021/11/29 07:34:56;;;;;;;1.50;0.35;;;;;8.40;100412.00;;;;5094846;28;20766;-77
2021/11/29 07:37:24;;;;;;;1.35;0.40;;;;;8.50;100421.00;;;;5101081;28;20205;-76
2021/11/29 07:39:52;;;;;;;0.50;0.22;;;;;8.50;100412.00;;;;5097621;28;20201;-77
2021/11/29 07:42:20;;;;;;;1.08;0.40;;;;;8.60;100410.00;;;;5099651;28;20296;-77
2021/11/29 07:44:48;;;;;;;0.98;0.15;;;;;8.60;100422.00;;;;5093163;28;20226;-77
2021/11/29 07:47:17;;;;;;;0.95;0.40;;;;;8.60;100429.00;;;;5087560;28;20197;-79
2021/11/29 07:49:44;;;;;;;0.10;0.00;;;;;8.60;100430.00;;;;5092077;28;20188;-77
2021/11/29 07:52:13;;;;;;;2.75;0.45;;;;;8.60;100438.00;;;;5097783;28;20221;-78
2021/11/29 07:54:41;;;;;;;1.23;0.10;;;;;8.60;100431.00;;;;5089533;28;20289;-78
2021/11/29 07:57:10;;;;;;;2.08;0.17;;;;;8.70;100433.00;;;;5089957;28;20194;-80
2021/11/29 07:59:38;;;;;;;0.57;0.10;;;;;8.70;100442.00;;;;5101816;28;20674;-78
2021/11/29 08:02:06;;;;;;;1.10;0.10;;;;;8.70;100442.00;;;;5105026;28;20189;-80
2021/11/29 08:04:34;;;;;;;2.50;0.40;;;;;8.70;100448.00;;;;5088845;28;20190;-79
2021/11/29 08:07:01;;;;;;;0.80;0.20;;;;;8.80;100455.00;;;;5087687;28;20202;-78
2021/11/29 08:09:28;;;;;;;0.63;0.10;;;;;8.80;100451.00;;;;5088088;28;20205;-80
2021/11/29 08:11:55;;;;;;;0.40;0.25;;;;;8.80;100462.00;;;;5088456;28;20217;-80
2021/11/29 08:14:23;;;;;;;0.25;0.10;;;;;8.90;100453.00;;;;5088533;28;20205;-80
2021/11/29 08:16:50;;;;;;;0.30;0.10;;;;;8.90;100461.00;;;;5094909;28;20194;-80
2021/11/29 08:19:18;;;;;;;1.67;0.40;;;;;8.90;100464.00;;;;5090118;28;20201;-80
2021/11/29 08:21:46;;;;;;;2.05;0.20;;;;;8.90;100458.00;;;;5088591;28;20206;-80
2021/11/29 08:24:13;;;;;;;0.63;0.15;;;;;8.90;100467.00;;;;5087155;28;20202;-80
2021/11/29 08:26:40;;;;;;;0.28;0.10;;;;;9.00;100463.00;;;;5091639;28;20617;-80
2021/11/29 08:29:08;;;;;;;0.20;0.20;;;;;9.00;100474.00;;;;5091650;28;20584;-79
2021/11/29 08:31:35;;;;;;;0.82;0.35;;;;;9.00;100474.00;;;;5094065;28;21116;-82
2021/11/29 08:34:03;;;;;;;1.38;0.30;;;;;9.10;100473.00;;;;5094750;28;20221;-81
2021/11/29 08:36:31;;;;;;;1.63;0.60;;;;;9.10;100476.00;;;;5093583;28;20723;-82
2021/11/29 08:38:59;;;;;;;1.05;0.47;;;;;9.10;100485.00;;;;5091036;28;20210;-83
2021/11/29 08:41:27;;;;;;;0.20;0.20;;;;;9.20;100486.00;;;;5096787;28;20195;-83
2021/11/29 08:43:54;;;;;;;0.35;0.20;;;;;9.20;100497.00;;;;5096735;28;20209;-83
2021/11/29 08:46:22;;;;;;;1.35;0.22;;;;;9.20;100498.00;;;;5092787;28;20205;-82
2021/11/29 08:48:50;;;;;;;1.27;0.32;;;;;9.30;100505.00;;;;5097852;28;20202;-83
2021/11/29 08:51:18;;;;;;;0.88;0.20;;;;;9.30;100513.00;;;;5094044;28;20263;-83
2021/11/29 08:53:47;;;;;;;0.30;0.10;;;;;9.40;100517.00;;;;5108181;28;20205;-83
2021/11/29 08:56:14;;;;;;;0.68;0.20;;;;;9.40;100522.00;;;;5102393;28;20194;-83
2021/11/29 08:58:42;;;;;;;0.73;0.20;;;;;9.50;100526.00;;;;5102010;28;20202;-82
2021/11/29 09:01:09;;;;;;;0.10;0.03;;;;;9.50;100536.00;;;;5095055;28;20247;-83
2021/11/29 09:03:36;;;;;;;1.98;0.15;;;;;9.60;100534.00;;;;5106919;28;20193;-82
2021/11/29 09:06:05;;;;;;;0.32;0.28;;;;;9.70;100539.00;;;;5091092;28;20205;-82
2021/11/29 09:08:32;;;;;;;0.98;0.40;;;;;9.80;100546.00;;;;5098762;28;20206;-82
2021/11/29 09:11:02;;;;;;;0.60;0.17;;;;;9.80;100553.00;;;;5095684;28;20321;-82
2021/11/29 09:13:31;;;;;;;1.02;0.20;;;;;9.90;100554.00;;;;5093680;28;20687;-81
2021/11/29 09:16:00;;;;;;;1.20;0.25;;;;;10.00;100555.00;;;;5090009;28;20751;-82
2021/11/29 09:18:28;;;;;;;2.53;0.70;;;;;10.10;100551.00;;;;5096699;28;20198;-81
2021/11/29 09:20:55;;;;;;;0.98;0.35;;;;;10.10;100553.00;;;;5096103;28;20201;-81
2021/11/29 09:23:23;;;;;;;0.17;0.10;;;;;10.20;100560.00;;;;5109678;28;20197;-82
2021/11/29 09:25:50;;;;;;;0.50;0.10;;;;;10.20;100566.00;;;;5101132;28;20682;-82
2021/11/29 09:28:19;;;;;;;0.98;0.20;;;;;10.30;100563.00;;;;5102635;28;20562;-83
2021/11/29 09:30:47;;;;;;;0.20;0.00;;;;;10.30;100567.00;;;;5095149;28;20717;-84
2021/11/29 09:33:15;;;;;;;0.60;0.10;;;;;10.40;100566.00;;;;5094640;28;20309;-83
2021/11/29 09:35:43;;;;;;;1.40;0.32;;;;;10.40;100576.00;;;;5094929;28;20223;-81
2021/11/29 09:38:10;;;;;;;0.73;0.13;;;;;10.40;100580.00;;;;5096327;28;20218;-82
2021/11/29 09:40:40;;;;;;;0.60;0.32;;;;;10.50;100578.00;;;;5094225;28;20659;-83
2021/11/29 09:43:09;;;;;;;0.17;0.03;;;;;10.50;100577.00;;;;5094815;28;20243;-83
2021/11/29 09:45:40;;;;;;;0.10;0.10;;;;;10.50;100597.00;;;;5092393;28;20290;-83
2021/11/29 09:48:08;;;;;;;0.55;0.03;;;;;10.50;100600.00;;;;5097900;28;20586;-83
2021/11/29 09:50:37;;;;;;;0.28;0.15;;;;;10.50;100596.00;;;;5096961;28;20222;-83
2021/11/29 09:53:05;;;;;;;0.20;0.10;;;;;10.50;100604.00;;;;5093224;28;20222;-83
2021/11/29 09:55:32;;;;;;;0.20;0.10;;;;;10.60;100596.00;;;;5092913;28;20218;-83
2021/11/29 09:58:04;;;;;;;0.73;0.30;;;;;10.60;100606.00;;;;5093085;28;20203;-84
2021/11/29 10:00:33;;;;;;;0.30;0.10;;;;;10.60;100599.00;;;;5103914;28;20193;-83
2021/11/29 10:03:02;;;;;;;0.90;0.22;;;;;10.70;100605.00;;;;5093121;28;20203;-84
2021/11/29 10:05:30;;;;;;;0.20;0.10;;;;;10.70;100600.00;;;;5090615;28;20584;-84
2021/11/29 10:07:58;;;;;;;0.73;0.20;;;;;10.70;100604.00;;;;5092917;28;20205;-84
2021/11/29 10:10:28;;;;;;;1.10;0.15;;;;;10.70;100610.00;;;;5092187;28;20209;-85
2021/11/29 10:12:59;;;;;;;0.75;0.38;;;;;10.80;100607.00;;;;5088219;28;20194;-84
2021/11/29 10:15:29;;;;;;;1.55;0.40;;;;;10.80;100601.00;;;;5090942;28;20679;-85
2021/11/29 10:18:11;;;;;;;4.07;0.30;;;;;10.80;100607.00;;;;5088564;28;20202;-79
2021/11/29 10:20:50;;;;;;;0.55;0.20;;;;;10.80;100596.00;;;;5090748;28;20574;-80
2021/11/29 10:23:29;;;;;;;0.65;0.30;;;;;10.90;100606.00;;;;5089247;28;20278;-80
2021/11/29 10:25:56;;;;;;;0.60;0.28;;;;;11.00;100603.00;;;;5093719;28;20200;-81
2021/11/29 10:28:27;;;;;;;0.90;0.30;;;;;11.00;100605.00;;;;5088873;28;20199;-80
2021/11/29 10:31:10;;;;;;;1.02;0.38;;;;;11.00;100614.00;;;;5089047;28;20226;-80
2021/11/29 10:33:48;;;;;;;0.47;0.25;;;;;11.10;100623.00;;;;5092045;28;20614;-80
2021/11/29 10:36:17;;;;;;;3.05;0.38;;;;;11.20;100627.00;;;;5090471;28;20671;-82
2021/11/29 10:38:49;;;;;;;0.68;0.20;;;;;11.20;100632.00;;;;5100569;28;20190;-83
2021/11/29 10:41:20;;;;;;;0.38;0.10;;;;;11.30;100640.00;;;;5099944;28;20208;-83
2021/11/29 10:43:47;;;;;;;0.60;0.25;;;;;11.40;100644.00;;;;5092969;28;20206;-82
2021/11/29 10:46:23;;;;;;;1.92;0.15;;;;;11.40;100649.00;;;;5097255;28;20206;-84
2021/11/29 10:48:52;;;;;;;0.85;0.17;;;;;11.40;100646.00;;;;5098561;28;20200;-83
2021/11/29 10:51:21;;;;;;;0.40;0.30;;;;;11.50;100653.00;;;;5092753;28;20225;-82
2021/11/29 10:53:50;;;;;;;0.68;0.30;;;;;11.50;100653.00;;;;5106063;28;20205;-84
2021/11/29 10:56:18;;;;;;;0.77;0.20;;;;;11.60;100656.00;;;;5097617;28;20741;-83
2021/11/29 10:58:48;;;;;;;1.95;0.45;;;;;11.60;100660.00;;;;5093224;28;20213;-82
2021/11/29 11:01:31;;;;;;;1.88;0.47;;;;;11.70;100652.00;;;;5087207;28;20198;-83
2021/11/29 11:03:59;;;;;;;1.65;0.65;;;;;11.70;100662.00;;;;5088783;28;20205;-82
2021/11/29 11:06:29;;;;;;;0.80;0.50;;;;;11.80;100656.00;;;;5096387;28;20213;-82
2021/11/29 11:08:56;;;;;;;0.30;0.20;;;;;11.90;100658.00;;;;5096536;28;20201;-81
2021/11/29 11:11:35;;;;;;;0.55;0.10;;;;;11.90;100661.00;;;;5095149;28;20633;-81
2021/11/29 11:14:08;;;;;;;0.93;0.20;;;;;12.00;100653.00;;;;5088410;28;20204;-82
2021/11/29 11:16:52;;;;;;;0.60;0.20;;;;;12.00;100663.00;;;;5101181;27;20229;-82
2021/11/29 11:19:34;;;;;;;1.33;0.22;;;;;12.00;100662.00;;;;5097057;27;20189;-82
2021/11/29 11:22:12;;;;;;;0.93;0.20;;;;;12.10;100661.00;;;;5097244;27;20202;-81
2021/11/29 11:24:41;;;;;;;0.40;0.30;;;;;12.20;100667.00;;;;5097797;27;20285;-82
2021/11/29 11:27:09;;;;;;;3.35;0.50;;;;;12.20;100670.00;;;;5095792;28;20651;-83
2021/11/29 11:29:46;;;;;;;0.38;0.20;;;;;12.20;100675.00;;;;5096181;28;20194;-83
2021/11/29 11:32:35;;;;;;;2.28;0.20;;;;;12.30;100671.00;;;;5095134;27;20695;-82
2021/11/29 11:35:07;;;;;;;0.68;0.30;;;;;12.40;100672.00;;;;5092904;28;21263;-83
2021/11/29 11:37:36;;;;;;;0.70;0.20;;;;;12.50;100672.00;;;;5093177;28;20240;-82
2021/11/29 11:40:05;;;;;;;0.88;0.20;;;;;12.60;100678.00;;;;5096554;27;20189;-83
2021/11/29 11:42:32;;;;;;;0.60;0.17;;;;;12.70;100682.00;;;;5096477;28;20245;-83
2021/11/29 11:45:01;;;;;;;0.55;0.30;;;;;12.80;100679.00;;;;5097584;28;20201;-81
2021/11/29 11:47:33;;;;;;;0.93;0.43;;;;;12.90;100685.00;;;;5097639;27;20197;-83
2021/11/29 11:50:00;;;;;;;0.47;0.30;;;;;13.00;100684.00;;;;5093701;28;20197;-82
2021/11/29 11:52:29;;;;;;;0.65;0.20;;;;;13.00;100682.00;;;;5093461;28;20233;-83
2021/11/29 11:55:00;;;;;;;0.63;0.30;;;;;13.10;100685.00;;;;5094924;28;20391;-83
2021/11/29 11:57:30;;;;;;;0.55;0.20;;;;;13.20;100681.00;;;;5089624;28;20243;-83
2021/11/29 12:00:14;;;;;;;1.10;0.25;;;;;13.20;100680.00;;;;5094484;28;20201;-84
2021/11/29 12:03:21;;;;;;;0.95;0.30;;;;;13.20;100673.00;;;;5093953;28;20674;-83
2021/11/29 12:05:51;;;;;;;1.30;0.30;;;;;13.40;100684.00;;;;5090603;28;20632;-84
2021/11/29 12:08:45;;;;;;;0.38;0.20;;;;;13.30;100690.00;;;;5090329;28;20201;-84
2021/11/29 12:11:37;;;;;;;0.65;0.40;;;;;13.40;100685.00;;;;5092009;28;20564;-84
2021/11/29 12:14:16;;;;;;;0.50;0.30;;;;;13.50;100686.00;;;;5089346;28;20230;-83
2021/11/29 12:16:47;;;;;;;2.00;0.70;;;;;13.60;100689.00;;;;5102591;28;20209;-84
2021/11/29 12:19:32;;;;;;;0.98;0.50;;;;;13.60;100688.00;;;;5093807;28;20201;-83
2021/11/29 12:22:02;;;;;;;1.70;0.45;;;;;13.60;100698.00;;;;5089369;28;20194;-84
2021/11/29 12:24:39;;;;;;;1.67;0.40;;;;;13.60;100702.00;;;;5092091;28;20194;-84